Time;durP1;ratioP1;P1;durP2;ratioP2;P2;SDS_P1;SDS_P2;PMS_P1;PMS_P2;Temp;Humidity;BMP_temperature;BMP_pressure;BME280_temperature;BME280_humidity;BME280_pressure;Samples;Min_cycle;Max_cycle;Signal;HPM_P1;HPM_P2
2022/05/11 00:00:36;;;;;;;;;;;13.90;99.90;;;;;;4982642;28;20293;-75
2022/05/11 00:03:03;;;;;;;8.20;4.80;;;14.00;99.90;;;;;;4985807;28;20384;-75
2022/05/11 00:05:28;;;;;;;5.72;4.85;;;14.00;99.90;;;;;;4983313;28;20152;-75
2022/05/11 00:07:55;;;;;;;7.45;5.65;;;14.10;99.90;;;;;;4982657;28;20125;-75
2022/05/11 00:10:21;;;;;;;6.72;5.30;;;14.00;99.90;;;;;;4982524;28;20030;-75
2022/05/11 00:12:47;;;;;;;6.70;5.15;;;14.00;99.90;;;;;;4981736;28;20033;-75
2022/05/11 00:15:17;;;;;;;7.15;5.45;;;13.90;99.90;;;;;;4981470;28;20038;-75
2022/05/11 00:17:43;;;;;;;7.85;4.97;;;13.90;99.90;;;;;;4982590;28;20034;-75
2022/05/11 00:20:09;;;;;;;6.78;5.22;;;13.90;99.90;;;;;;4986964;28;20053;-75
2022/05/11 00:22:36;;;;;;;7.72;5.35;;;13.90;99.90;;;;;;4986756;28;20053;-75
2022/05/11 00:25:05;;;;;;;8.70;5.45;;;13.70;99.90;;;;;;4984326;28;20049;-76
2022/05/11 00:27:31;;;;;;;7.95;5.63;;;13.80;99.90;;;;;;4979882;28;20054;-76
2022/05/11 00:29:57;;;;;;;8.80;4.97;;;13.80;99.90;;;;;;4981625;28;20188;-76
2022/05/11 00:32:25;;;;;;;9.32;5.03;;;13.80;99.90;;;;;;4977449;28;20415;-75
2022/05/11 00:34:51;;;;;;;8.30;5.60;;;13.80;99.90;;;;;;4978938;28;20041;-76
2022/05/11 00:37:17;;;;;;;5.80;4.70;;;13.70;99.90;;;;;;4977130;28;20046;-75
2022/05/11 00:39:42;;;;;;;7.25;5.03;;;13.70;99.90;;;;;;4979946;28;20461;-76
2022/05/11 00:42:08;;;;;;;6.40;4.78;;;13.80;99.90;;;;;;4977424;28;20164;-75
2022/05/11 00:44:34;;;;;;;5.57;5.07;;;13.90;99.90;;;;;;4976523;28;20096;-75
2022/05/11 00:47:24;;;;;;;8.20;4.97;;;13.90;99.90;;;;;;4981039;28;20611;-75
2022/05/11 00:49:58;;;;;;;8.05;5.20;;;13.90;99.90;;;;;;4977899;28;20092;-76
2022/05/11 00:52:34;;;;;;;9.05;5.43;;;13.90;99.90;;;;;;4980204;28;20031;-76
2022/05/11 00:55:03;;;;;;;5.80;4.82;;;13.90;99.90;;;;;;4979063;28;20393;-75
2022/05/11 00:57:57;;;;;;;7.25;5.53;;;13.80;99.90;;;;;;4983114;28;20038;-76
2022/05/11 01:00:24;;;;;;;5.72;5.10;;;13.90;99.90;;;;;;4958297;28;20054;-75
2022/05/11 01:02:57;;;;;;;5.85;4.60;;;13.90;99.90;;;;;;4978007;28;20062;-75
2022/05/11 01:05:23;;;;;;;6.63;4.75;;;14.00;99.90;;;;;;4978502;28;20038;-76
2022/05/11 01:07:56;;;;;;;7.03;4.82;;;14.00;99.90;;;;;;4977009;28;20031;-76
2022/05/11 01:10:25;;;;;;;7.03;4.72;;;14.00;99.90;;;;;;4980718;28;20392;-75
2022/05/11 01:12:55;;;;;;;6.40;4.78;;;13.90;99.90;;;;;;4979390;28;20029;-75
2022/05/11 01:15:21;;;;;;;5.55;4.53;;;13.90;99.90;;;;;;4978540;28;20031;-75
2022/05/11 01:17:47;;;;;;;7.53;4.50;;;13.90;99.90;;;;;;4983735;28;20050;-76
2022/05/11 01:20:20;;;;;;;5.53;4.45;;;13.80;99.90;;;;;;4985761;28;21119;-75
2022/05/11 01:22:51;;;;;;;5.50;4.20;;;13.80;99.90;;;;;;4979874;28;20041;-75
2022/05/11 01:25:18;;;;;;;5.35;4.85;;;13.80;99.90;;;;;;4985294;28;21757;-76
2022/05/11 01:27:46;;;;;;;4.88;4.40;;;13.80;99.90;;;;;;4979690;28;20612;-75
2022/05/11 01:30:23;;;;;;;4.80;4.33;;;13.90;99.90;;;;;;4979701;28;20168;-75
2022/05/11 01:32:52;;;;;;;5.35;4.55;;;13.90;99.90;;;;;;4960212;28;20278;-76
2022/05/11 01:35:51;;;;;;;6.15;4.15;;;13.80;99.90;;;;;;4958078;28;20054;-75
2022/05/11 01:38:40;;;;;;;4.60;4.18;;;13.70;99.90;;;;;;4957967;28;20042;-75
2022/05/11 01:41:12;;;;;;;6.47;4.28;;;13.70;99.90;;;;;;4960940;28;20093;-75
2022/05/11 01:43:40;;;;;;;6.10;4.10;;;13.60;99.90;;;;;;4958272;28;20617;-75
2022/05/11 01:46:06;;;;;;;5.97;4.20;;;13.60;99.90;;;;;;4959649;28;20391;-75
2022/05/11 01:48:33;;;;;;;5.40;4.35;;;13.60;99.90;;;;;;4957199;28;20402;-75
2022/05/11 01:50:59;;;;;;;6.18;4.55;;;13.70;99.90;;;;;;4958486;28;20038;-75
2022/05/11 01:53:25;;;;;;;6.40;4.10;;;13.70;99.90;;;;;;4959332;28;20039;-75
2022/05/11 01:55:51;;;;;;;8.55;4.47;;;13.70;99.90;;;;;;4960673;28;20046;-75
2022/05/11 01:58:19;;;;;;;6.10;4.60;;;13.60;99.90;;;;;;4958601;28;20039;-75
2022/05/11 02:00:46;;;;;;;7.30;4.60;;;13.50;99.90;;;;;;4961712;28;20027;-76
2022/05/11 02:03:13;;;;;;;7.13;4.40;;;13.50;99.90;;;;;;4977572;28;21765;-75
2022/05/11 02:08:25;;;;;;;7.97;4.47;;;13.50;99.90;;;;;;4980597;28;20069;-75
2022/05/11 02:10:51;;;;;;;8.88;4.47;;;13.50;99.90;;;;;;4979673;28;20041;-76
2022/05/11 02:13:17;;;;;;;5.93;4.57;;;13.40;99.90;;;;;;4978509;28;20053;-75
2022/05/11 02:15:42;;;;;;;5.18;4.68;;;13.50;99.90;;;;;;4981413;28;20409;-75
2022/05/11 02:18:08;;;;;;;4.80;4.25;;;13.50;99.90;;;;;;4979703;28;20114;-76
2022/05/11 02:20:34;;;;;;;7.28;4.35;;;13.50;99.90;;;;;;4978375;28;20454;-75
2022/05/11 02:22:59;;;;;;;5.80;5.00;;;13.60;99.90;;;;;;4980314;28;20038;-75
2022/05/11 02:25:25;;;;;;;5.30;4.65;;;13.60;99.90;;;;;;4979554;28;20062;-75
2022/05/11 02:27:52;;;;;;;5.45;4.32;;;13.60;99.90;;;;;;4976749;28;20057;-76
2022/05/11 02:30:22;;;;;;;5.13;4.18;;;13.70;99.90;;;;;;4978337;28;20042;-76
2022/05/11 02:32:48;;;;;;;5.07;4.00;;;13.60;99.90;;;;;;4954588;28;20225;-76
2022/05/11 02:35:14;;;;;;;5.20;3.88;;;13.50;99.90;;;;;;4960230;28;20418;-75
2022/05/11 02:37:55;;;;;;;6.38;4.68;;;13.40;99.90;;;;;;4955357;28;20038;-75
2022/05/11 02:40:42;;;;;;;5.85;4.18;;;13.50;99.90;;;;;;4942990;28;20078;-76
2022/05/11 02:43:09;;;;;;;5.60;4.03;;;13.50;99.90;;;;;;4864323;28;20039;-75
2022/05/11 02:45:36;;;;;;;6.35;4.35;;;13.50;99.90;;;;;;4956844;28;20030;-74
2022/05/11 02:48:03;;;;;;;6.72;4.40;;;13.30;99.90;;;;;;4961134;28;20105;-75
2022/05/11 02:50:32;;;;;;;5.32;4.00;;;13.10;99.90;;;;;;4960705;28;20433;-75
2022/05/11 02:52:58;;;;;;;6.85;5.20;;;12.90;99.90;;;;;;4963529;28;20485;-74
2022/05/11 02:55:23;;;;;;;7.50;4.75;;;12.90;99.90;;;;;;4960094;28;20042;-75
2022/05/11 02:57:49;;;;;;;7.55;5.53;;;12.80;99.90;;;;;;4956977;28;20438;-75
2022/05/11 03:00:17;;;;;;;7.03;5.35;;;12.70;99.90;;;;;;4960413;28;21295;-74
2022/05/11 03:02:43;;;;;;;;;;;12.80;99.90;;;;;;4966515;28;20066;-74
2022/05/11 03:05:11;;;;;;;7.22;4.78;;;12.80;99.90;;;;;;4954605;28;19913;-74
2022/05/11 03:07:37;;;;;;;7.45;4.57;;;12.90;99.90;;;;;;4954913;28;20482;-75
2022/05/11 03:10:04;;;;;;;5.53;4.70;;;12.90;99.90;;;;;;4956829;28;20038;-75
2022/05/11 03:12:31;;;;;;;6.28;4.38;;;12.80;99.90;;;;;;4965196;28;20035;-75
2022/05/11 03:14:57;;;;;;;7.47;4.47;;;12.70;99.90;;;;;;4958876;28;20506;-75
2022/05/11 03:17:24;;;;;;;6.22;4.70;;;12.80;99.90;;;;;;4961278;28;20434;-75
2022/05/11 03:19:50;;;;;;;7.10;5.07;;;12.90;99.90;;;;;;4959665;28;20109;-74
2022/05/11 03:22:16;;;;;;;6.60;4.90;;;12.90;99.90;;;;;;4960425;28;20034;-74
2022/05/11 03:24:41;;;;;;;6.25;4.57;;;12.90;99.90;;;;;;4959234;28;20051;-75
2022/05/11 03:27:07;;;;;;;5.03;4.32;;;12.80;99.90;;;;;;4961495;28;20520;-74
2022/05/11 03:29:33;;;;;;;7.85;4.82;;;12.80;99.90;;;;;;4964267;28;20047;-75
2022/05/11 03:34:43;;;;;;;6.30;4.60;;;12.60;99.90;;;;;;4961248;28;20143;-75
2022/05/11 03:37:12;;;;;;;6.72;4.40;;;12.50;99.90;;;;;;4964089;28;20055;-75
2022/05/11 03:39:37;;;;;;;5.65;4.07;;;12.30;99.90;;;;;;4961212;28;20066;-74
2022/05/11 03:42:04;;;;;;;4.85;4.10;;;12.20;99.90;;;;;;4969570;28;20409;-75
2022/05/11 03:44:30;;;;;;;5.68;4.88;;;12.10;99.90;;;;;;4963392;28;20046;-75
2022/05/11 03:46:56;;;;;;;5.65;4.47;;;11.90;99.90;;;;;;4964465;28;20034;-74
2022/05/11 03:49:22;;;;;;;6.20;4.85;;;11.90;99.90;;;;;;4963102;28;20030;-75
2022/05/11 03:51:49;;;;;;;6.20;4.40;;;11.80;99.90;;;;;;4961794;28;20058;-75
2022/05/11 03:54:15;;;;;;;5.55;4.53;;;11.80;99.90;;;;;;4966372;28;20042;-75
2022/05/11 03:56:40;;;;;;;5.75;4.38;;;12.00;99.90;;;;;;4957552;28;20043;-75
2022/05/11 03:59:06;;;;;;;5.95;4.70;;;12.00;99.90;;;;;;4965899;28;20023;-74
2022/05/11 04:01:31;;;;;;;5.90;4.40;;;12.00;99.90;;;;;;4963770;28;20161;-75
2022/05/11 04:03:57;;;;;;;7.00;4.53;;;11.90;99.90;;;;;;4965772;28;20038;-74
2022/05/11 04:06:23;;;;;;;6.88;4.43;;;11.90;99.90;;;;;;4940763;28;20042;-75
2022/05/11 04:08:48;;;;;;;6.53;4.50;;;11.90;99.90;;;;;;4963676;28;20671;-75
2022/05/11 04:11:14;;;;;;;5.25;4.22;;;12.10;99.90;;;;;;4959218;28;20117;-75
2022/05/11 04:13:43;;;;;;;5.10;4.10;;;12.20;99.90;;;;;;4958779;28;20127;-74
2022/05/11 04:16:09;;;;;;;6.10;4.85;;;12.20;99.90;;;;;;4962873;28;20046;-75
2022/05/11 04:18:35;;;;;;;5.25;4.57;;;12.30;99.90;;;;;;4964310;28;20383;-75
2022/05/11 04:21:01;;;;;;;5.30;4.35;;;12.30;99.90;;;;;;4964545;28;20024;-75
2022/05/11 04:23:27;;;;;;;5.90;4.15;;;12.40;99.90;;;;;;4962510;28;20073;-75
2022/05/11 04:25:54;;;;;;;6.28;4.68;;;12.40;99.90;;;;;;4960680;28;20042;-75
2022/05/11 04:28:19;;;;;;;7.82;4.65;;;12.40;99.90;;;;;;4960884;28;20049;-75
2022/05/11 04:30:45;;;;;;;6.88;5.15;;;12.40;99.90;;;;;;4959113;28;20051;-75
2022/05/11 04:33:11;;;;;;;10.95;4.95;;;12.40;99.90;;;;;;4968631;28;20466;-75
2022/05/11 04:35:37;;;;;;;5.38;4.40;;;12.30;99.90;;;;;;4962122;28;20039;-75
2022/05/11 04:38:04;;;;;;;6.72;4.65;;;12.20;99.90;;;;;;4964188;28;20149;-75
2022/05/11 04:40:31;;;;;;;4.97;4.20;;;12.10;99.90;;;;;;4963192;28;20050;-75
2022/05/11 04:42:57;;;;;;;5.32;4.68;;;12.10;99.90;;;;;;4964249;28;20105;-75
2022/05/11 04:45:23;;;;;;;8.75;4.45;;;12.20;99.90;;;;;;4962643;28;20054;-75
2022/05/11 04:47:48;;;;;;;6.28;4.15;;;12.10;99.90;;;;;;4965345;28;20137;-74
2022/05/11 04:50:16;;;;;;;6.13;4.47;;;12.10;99.90;;;;;;4962224;28;20035;-75
2022/05/11 04:52:42;;;;;;;9.27;5.07;;;12.00;99.90;;;;;;4963340;28;20043;-75
2022/05/11 04:55:09;;;;;;;5.60;4.43;;;12.00;99.90;;;;;;4964323;28;20978;-75
2022/05/11 04:57:36;;;;;;;6.50;4.63;;;12.10;99.90;;;;;;4961615;28;20045;-75
2022/05/11 05:00:05;;;;;;;5.85;4.53;;;12.30;99.90;;;;;;4959868;28;20042;-75
2022/05/11 05:02:30;;;;;;;7.85;5.00;;;12.40;99.90;;;;;;4959415;28;20058;-75
2022/05/11 05:05:00;;;;;;;8.68;4.75;;;12.50;99.90;;;;;;4962335;28;20203;-75
2022/05/11 05:07:26;;;;;;;5.43;4.07;;;12.70;99.90;;;;;;4959373;28;20124;-74
2022/05/11 05:09:52;;;;;;;8.00;4.70;;;12.90;99.90;;;;;;4961252;28;20041;-73
2022/05/11 05:12:18;;;;;;;6.95;5.03;;;13.10;99.90;;;;;;4957793;28;20034;-75
2022/05/11 05:14:44;;;;;;;6.88;4.63;;;13.20;99.90;;;;;;4961525;28;20066;-74
2022/05/11 05:17:12;;;;;;;8.48;4.68;;;13.30;99.90;;;;;;4957912;28;20097;-75
2022/05/11 05:19:40;;;;;;;6.30;4.85;;;13.40;99.90;;;;;;4961739;28;20538;-75
2022/05/11 05:22:06;;;;;;;5.18;3.92;;;13.60;99.90;;;;;;4961843;28;20047;-74
2022/05/11 05:24:32;;;;;;;6.65;4.78;;;13.70;99.90;;;;;;4960144;28;20086;-74
2022/05/11 05:26:59;;;;;;;7.72;4.63;;;13.80;99.90;;;;;;4959859;28;20042;-74
2022/05/11 05:32:10;;;;;;;8.13;5.10;;;14.20;99.90;;;;;;4960060;28;20541;-74
2022/05/11 05:34:36;;;;;;;8.70;5.97;;;14.40;99.90;;;;;;4958741;28;20043;-74
2022/05/11 05:37:01;;;;;;;7.85;4.80;;;14.50;99.90;;;;;;4958585;28;20039;-74
2022/05/11 05:39:27;;;;;;;7.50;4.65;;;14.60;99.90;;;;;;4960342;28;20039;-74
2022/05/11 05:41:53;;;;;;;6.53;4.90;;;14.80;99.90;;;;;;4959514;28;20038;-74
2022/05/11 05:44:22;;;;;;;6.43;5.28;;;15.00;99.90;;;;;;4957848;28;20026;-74
2022/05/11 05:46:47;;;;;;;7.32;5.10;;;15.10;99.90;;;;;;4959942;28;20421;-74
2022/05/11 05:49:17;;;;;;;7.70;5.63;;;15.10;99.90;;;;;;4960261;28;20082;-74
2022/05/11 05:51:43;;;;;;;9.50;5.03;;;15.20;99.90;;;;;;4948906;28;20030;-74
2022/05/11 05:54:11;;;;;;;7.03;4.90;;;15.30;99.90;;;;;;4962509;28;20122;-74
2022/05/11 05:56:43;;;;;;;8.68;5.65;;;15.40;99.90;;;;;;4963217;28;20142;-75
2022/05/11 05:59:10;;;;;;;7.40;4.70;;;15.50;99.90;;;;;;4967286;28;20472;-75
2022/05/11 06:01:36;;;;;;;7.05;5.75;;;15.70;99.90;;;;;;4960431;28;20867;-74
2022/05/11 06:04:02;;;;;;;8.77;5.25;;;15.80;99.90;;;;;;4966235;28;20027;-75
2022/05/11 06:06:28;;;;;;;8.10;4.78;;;16.00;99.90;;;;;;4962555;28;20159;-75
2022/05/11 06:08:53;;;;;;;8.85;5.05;;;16.20;99.90;;;;;;4960827;28;20049;-75
2022/05/11 06:11:23;;;;;;;6.53;4.78;;;16.40;99.90;;;;;;4969819;28;20173;-75
2022/05/11 06:13:49;;;;;;;6.65;4.60;;;16.60;99.90;;;;;;4961193;28;20046;-76
2022/05/11 06:16:16;;;;;;;5.88;4.20;;;16.70;99.90;;;;;;4967314;28;20406;-75
2022/05/11 06:18:44;;;;;;;7.07;4.90;;;16.90;99.90;;;;;;4966314;28;20037;-75
2022/05/11 06:21:11;;;;;;;5.93;4.32;;;17.10;99.90;;;;;;4960499;28;20039;-75
2022/05/11 06:23:47;;;;;;;6.50;4.13;;;17.20;99.90;;;;;;4973071;28;20041;-75
2022/05/11 06:26:13;;;;;;;5.20;3.88;;;17.30;99.90;;;;;;4970531;28;20042;-75
2022/05/11 06:28:41;;;;;;;4.95;4.40;;;17.50;99.90;;;;;;4963706;28;20041;-74
2022/05/11 06:31:08;;;;;;;5.67;4.23;;;17.60;99.90;;;;;;4963379;28;20054;-75
2022/05/11 06:33:34;;;;;;;6.87;4.20;;;17.90;99.90;;;;;;4945862;28;20065;-75
2022/05/11 06:36:01;;;;;;;5.63;4.03;;;18.10;99.90;;;;;;4966927;28;20058;-75
2022/05/11 06:38:26;;;;;;;9.18;4.53;;;18.10;99.90;;;;;;4963613;28;20038;-75
2022/05/11 06:40:52;;;;;;;5.28;3.90;;;18.20;99.90;;;;;;4942667;28;20038;-75
2022/05/11 06:43:18;;;;;;;5.85;4.25;;;18.40;99.90;;;;;;4959987;28;20031;-75
2022/05/11 06:45:47;;;;;;;4.78;3.60;;;18.60;99.90;;;;;;4958441;28;20098;-75
2022/05/11 06:48:14;;;;;;;4.82;4.30;;;18.80;99.90;;;;;;4961686;28;20389;-75
2022/05/11 06:50:41;;;;;;;7.22;4.38;;;18.80;99.90;;;;;;4962546;28;20071;-75
2022/05/11 06:53:14;;;;;;;4.72;3.78;;;18.90;99.90;;;;;;4959909;28;20031;-75
2022/05/11 07:01:10;;;;;;;6.63;4.40;;;19.40;99.90;;;;;;4957814;28;20175;-76
2022/05/11 07:03:36;;;;;;;5.30;4.13;;;19.40;99.90;;;;;;4960674;28;20458;-75
2022/05/11 07:06:04;;;;;;;5.35;4.13;;;19.60;99.90;;;;;;4964401;28;20038;-75
2022/05/11 07:08:37;;;;;;;5.03;4.47;;;19.60;97.60;;;;;;4966106;28;20046;-75
2022/05/11 07:13:49;;;;;;;4.80;4.30;;;19.60;99.60;;;;;;4961810;28;20094;-75
2022/05/11 07:16:16;;;;;;;6.13;4.07;;;19.60;99.30;;;;;;4970094;28;20043;-74
2022/05/11 07:18:42;;;;;;;5.50;4.40;;;19.60;99.90;;;;;;4967370;28;20102;-75
2022/05/11 07:21:10;;;;;;;5.63;4.63;;;19.80;98.70;;;;;;4972693;28;20546;-75
2022/05/11 07:23:36;;;;;;;8.43;4.10;;;19.90;98.50;;;;;;4949418;28;20039;-74
2022/05/11 07:26:10;;;;;;;5.65;4.05;;;20.10;97.70;;;;;;4970682;28;20037;-74
2022/05/11 07:28:37;;;;;;;4.95;4.13;;;20.30;95.60;;;;;;4965481;28;20030;-75
2022/05/11 07:31:03;;;;;;;4.80;3.95;;;20.40;96.30;;;;;;4969003;28;20034;-75
2022/05/11 07:33:31;;;;;;;4.53;4.13;;;20.70;96.40;;;;;;4968269;28;20034;-74
2022/05/11 07:35:57;;;;;;;4.95;3.88;;;20.90;94.00;;;;;;4971820;28;20117;-74
2022/05/11 07:38:23;;;;;;;4.35;3.80;;;21.20;93.20;;;;;;4963469;28;20110;-75
2022/05/11 07:40:48;;;;;;;4.60;4.20;;;21.20;93.80;;;;;;4963381;28;20030;-75
2022/05/11 07:43:14;;;;;;;8.05;4.32;;;21.30;95.50;;;;;;4965110;28;20501;-74
2022/05/11 07:45:41;;;;;;;6.38;3.95;;;21.20;92.90;;;;;;4962410;28;20038;-75
2022/05/11 07:48:07;;;;;;;5.15;4.30;;;21.20;90.70;;;;;;4963984;28;20038;-75
2022/05/11 07:50:33;;;;;;;5.38;4.53;;;21.00;90.00;;;;;;4963973;28;20039;-75
2022/05/11 07:52:59;;;;;;;5.35;4.10;;;20.70;91.20;;;;;;4949699;28;20039;-75
2022/05/11 07:55:26;;;;;;;6.47;4.28;;;20.60;95.50;;;;;;4967701;28;20081;-74
2022/05/11 08:00:53;;;;;;;6.13;4.38;;;21.00;94.50;;;;;;4909071;29;20501;-75
2022/05/11 08:03:19;;;;;;;5.38;4.80;;;21.30;97.00;;;;;;4972167;28;20093;-74
2022/05/11 08:05:44;;;;;;;6.55;4.32;;;21.30;92.60;;;;;;4990657;28;20035;-75
2022/05/11 08:08:10;;;;;;;5.68;4.35;;;21.20;93.30;;;;;;4986521;28;20023;-74
2022/05/11 08:10:41;;;;;;;5.88;4.30;;;21.40;97.60;;;;;;4993799;28;20402;-75
2022/05/11 08:13:08;;;;;;;6.00;4.60;;;21.60;91.80;;;;;;4987445;28;20470;-75
2022/05/11 08:15:38;;;;;;;5.55;4.72;;;21.60;91.80;;;;;;4987268;28;20043;-75
2022/05/11 08:18:06;;;;;;;6.32;4.22;;;21.70;94.00;;;;;;4991334;28;20466;-74
2022/05/11 08:20:43;;;;;;;5.85;4.15;;;22.00;90.50;;;;;;4958001;28;20046;-75
2022/05/11 08:23:10;;;;;;;5.78;3.80;;;22.40;91.70;;;;;;4979873;28;20038;-74
2022/05/11 08:25:38;;;;;;;5.28;4.35;;;22.30;90.70;;;;;;4989073;28;20038;-75
2022/05/11 08:28:11;;;;;;;5.45;4.07;;;22.60;90.50;;;;;;4981008;28;20454;-75
2022/05/11 08:33:28;;;;;;;6.10;4.38;;;22.30;74.00;;;;;;4986346;28;20566;-75
2022/05/11 08:35:58;;;;;;;4.50;3.90;;;22.30;83.60;;;;;;4988770;28;20095;-74
2022/05/11 08:38:28;;;;;;;4.53;3.88;;;22.20;80.50;;;;;;4982251;28;20464;-74
2022/05/11 08:41:04;;;;;;;4.40;4.00;;;22.30;85.20;;;;;;4981512;28;20045;-75
2022/05/11 08:43:34;;;;;;;5.95;3.75;;;22.50;82.00;;;;;;4985895;28;20038;-75
2022/05/11 08:46:14;;;;;;;3.05;2.75;;;23.00;78.80;;;;;;4995334;28;20124;-75
2022/05/11 08:48:48;;;;;;;4.47;3.38;;;22.90;62.30;;;;;;4993710;28;20760;-75
2022/05/11 08:51:25;;;;;;;4.47;3.30;;;22.70;66.00;;;;;;4983543;28;20038;-74
2022/05/11 08:54:03;;;;;;;3.50;3.03;;;22.70;62.30;;;;;;4977787;28;20092;-74
2022/05/11 08:56:31;;;;;;;3.30;3.00;;;22.90;67.50;;;;;;4961180;28;20038;-74
2022/05/11 08:58:57;;;;;;;3.80;3.10;;;22.80;63.50;;;;;;4966582;28;20037;-74
2022/05/11 09:01:34;;;;;;;4.05;3.22;;;22.80;61.70;;;;;;4989369;28;20059;-74
2022/05/11 09:04:04;;;;;;;3.08;2.78;;;23.00;59.00;;;;;;4969038;28;20037;-74
2022/05/11 09:06:30;;;;;;;3.40;2.70;;;23.30;58.50;;;;;;4983505;28;20164;-75
2022/05/11 09:09:02;;;;;;;3.70;2.50;;;23.10;55.20;;;;;;4980488;28;20133;-74
2022/05/11 09:11:39;;;;;;;3.33;2.28;;;23.20;52.50;;;;;;4981763;28;20034;-74
2022/05/11 09:14:05;;;;;;;4.97;2.75;;;23.10;53.20;;;;;;4970918;28;20549;-74
2022/05/11 09:16:51;;;;;;;7.15;2.83;;;23.50;59.40;;;;;;4966638;28;20048;-74
2022/05/11 09:19:32;;;;;;;4.18;2.47;;;23.80;54.30;;;;;;4985098;28;20035;-74
2022/05/11 09:22:30;;;;;;;3.10;2.38;;;23.80;54.40;;;;;;4952593;28;20030;-74
2022/05/11 09:25:13;;;;;;;2.78;2.58;;;23.70;50.40;;;;;;4976065;28;20493;-75
2022/05/11 09:27:39;;;;;;;2.90;2.60;;;23.60;52.20;;;;;;4989195;28;20034;-75
2022/05/11 09:30:27;;;;;;;3.38;2.80;;;23.90;50.40;;;;;;4987546;28;20031;-75
2022/05/11 09:33:13;;;;;;;2.85;2.42;;;23.80;51.70;;;;;;4984790;28;20042;-74
2022/05/11 09:35:40;;;;;;;2.85;2.58;;;23.70;49.20;;;;;;4974240;28;20042;-75
2022/05/11 09:38:46;;;;;;;2.92;2.63;;;23.60;52.90;;;;;;4990031;28;20030;-75
2022/05/11 09:41:14;;;;;;;5.80;2.88;;;23.60;51.90;;;;;;4978719;28;20031;-75
2022/05/11 09:43:39;;;;;;;;;;;24.10;52.30;;;;;;4990385;28;20516;-75
2022/05/11 09:46:28;;;;;;;3.28;2.92;;;24.10;53.10;;;;;;4991588;28;19910;-74
2022/05/11 09:49:07;;;;;;;3.05;2.80;;;24.20;49.90;;;;;;4990018;28;20038;-74
2022/05/11 09:51:51;;;;;;;3.60;2.72;;;24.10;49.60;;;;;;4986410;28;20049;-76
2022/05/11 09:54:42;;;;;;;2.85;2.58;;;24.10;49.50;;;;;;4982809;28;20042;-75
2022/05/11 09:57:08;;;;;;;3.17;2.88;;;23.90;48.50;;;;;;4985311;28;20043;-76
2022/05/11 09:59:39;;;;;;;2.80;2.58;;;24.00;52.30;;;;;;4983254;28;20035;-74
2022/05/11 10:02:26;;;;;;;2.95;2.75;;;24.10;49.90;;;;;;4966085;28;20063;-76
2022/05/11 10:05:15;;;;;;;2.60;2.30;;;24.30;50.30;;;;;;4978517;28;20034;-75
2022/05/11 10:08:08;;;;;;;2.95;2.53;;;24.30;49.50;;;;;;4978612;28;20042;-75
2022/05/11 10:10:40;;;;;;;3.38;2.97;;;24.10;50.40;;;;;;4980096;28;20441;-74
2022/05/11 10:13:35;;;;;;;3.17;2.88;;;24.20;51.00;;;;;;4978375;28;20052;-75
2022/05/11 10:21:52;;;;;;;3.28;2.95;;;25.00;49.00;;;;;;4981053;28;20040;-76
2022/05/11 10:24:44;;;;;;;3.17;2.88;;;25.10;51.40;;;;;;4959601;28;20169;-75
2022/05/11 10:27:38;;;;;;;3.13;2.83;;;25.20;52.00;;;;;;4985552;28;20389;-74
2022/05/11 10:30:08;;;;;;;2.75;2.55;;;25.20;48.10;;;;;;4981951;28;20042;-75
2022/05/11 10:32:49;;;;;;;2.90;2.63;;;24.90;50.50;;;;;;4968004;28;20059;-75
2022/05/11 10:35:17;;;;;;;3.60;2.85;;;24.70;48.60;;;;;;4979039;28;20042;-76
2022/05/11 10:37:55;;;;;;;2.38;2.05;;;24.80;48.50;;;;;;4980632;28;20050;-75
2022/05/11 10:40:41;;;;;;;6.97;2.45;;;24.80;44.20;;;;;;4980823;28;20041;-75
2022/05/11 10:43:21;;;;;;;4.95;2.80;;;24.80;45.10;;;;;;4980296;28;20035;-76
2022/05/11 10:45:58;;;;;;;2.95;2.75;;;24.70;45.80;;;;;;4963725;28;20181;-74
2022/05/11 10:48:24;;;;;;;;;;;24.80;45.60;;;;;;4980754;28;20037;-74
2022/05/11 10:51:05;;;;;;;3.65;2.65;;;24.70;46.80;;;;;;4978998;28;19918;-75
2022/05/11 10:53:41;;;;;;;5.03;2.83;;;25.00;49.00;;;;;;4986285;28;20042;-75
2022/05/11 10:56:12;;;;;;;3.85;2.80;;;25.20;48.20;;;;;;4985520;28;20062;-73
2022/05/11 10:59:11;;;;;;;4.78;3.08;;;25.10;45.30;;;;;;4984789;28;20030;-74
2022/05/11 11:01:45;;;;;;;3.42;3.03;;;25.00;47.50;;;;;;4979658;28;20055;-74
2022/05/11 11:04:40;;;;;;;3.53;2.63;;;25.10;46.60;;;;;;4979155;28;20061;-74
2022/05/11 11:07:16;;;;;;;5.90;4.00;;;25.00;46.70;;;;;;4967545;28;20076;-74
2022/05/11 11:10:12;;;;;;;3.45;2.50;;;24.90;47.50;;;;;;4979906;28;20046;-74
2022/05/11 11:12:51;;;;;;;3.70;2.90;;;24.80;48.10;;;;;;4982522;28;20035;-74
2022/05/11 11:15:20;;;;;;;3.38;2.60;;;24.70;49.40;;;;;;4974210;28;20034;-73
2022/05/11 11:17:47;;;;;;;3.95;2.92;;;24.80;45.70;;;;;;4984093;28;20061;-74
2022/05/11 11:20:18;;;;;;;4.05;3.28;;;24.50;46.80;;;;;;4982052;28;20414;-73
2022/05/11 11:23:04;;;;;;;4.13;2.97;;;24.50;47.60;;;;;;4980492;28;20045;-74
2022/05/11 11:25:45;;;;;;;2.80;2.60;;;24.50;50.20;;;;;;4982332;28;20122;-73
2022/05/11 11:28:14;;;;;;;3.83;2.65;;;24.80;51.60;;;;;;4963172;28;20110;-74
2022/05/11 11:31:01;;;;;;;4.32;2.90;;;24.80;46.50;;;;;;4980604;28;20141;-74
2022/05/11 11:33:41;;;;;;;2.97;2.78;;;24.80;47.00;;;;;;4965559;28;20039;-74
2022/05/11 11:36:18;;;;;;;3.05;2.60;;;24.70;45.70;;;;;;4973988;28;20042;-73
2022/05/11 11:38:49;;;;;;;;;;;24.90;50.60;;;;;;4981667;28;20035;-73
2022/05/11 11:41:22;;;;;;;3.08;2.75;;;24.70;45.20;;;;;;4958434;28;19916;-73
2022/05/11 11:43:58;;;;;;;3.08;2.78;;;24.70;47.60;;;;;;4949920;28;20041;-73
2022/05/11 11:46:27;;;;;;;4.20;2.72;;;24.70;47.60;;;;;;4974670;28;20031;-74
2022/05/11 11:49:09;;;;;;;3.67;2.85;;;24.80;47.70;;;;;;4983984;28;20065;-74
2022/05/11 11:52:00;;;;;;;3.15;2.72;;;24.90;49.20;;;;;;4987165;28;20086;-74
2022/05/11 11:54:38;;;;;;;3.00;2.72;;;24.90;48.30;;;;;;4972812;28;20069;-73
2022/05/11 11:57:14;;;;;;;3.35;2.83;;;24.90;45.20;;;;;;4987982;28;20394;-74
2022/05/11 11:59:48;;;;;;;4.15;3.00;;;24.90;48.10;;;;;;4981383;28;20038;-74
2022/05/11 12:02:32;;;;;;;3.25;2.95;;;24.90;48.60;;;;;;4962131;28;20066;-75
2022/05/11 12:05:04;;;;;;;3.05;2.83;;;24.90;47.00;;;;;;4961578;28;20062;-76
2022/05/11 12:16:17;;;;;;;3.13;2.75;;;25.60;46.60;;;;;;4962582;28;20066;-75
2022/05/11 12:18:44;;;;;;;2.55;2.35;;;25.70;48.00;;;;;;4965849;28;21645;-75
2022/05/11 12:21:55;;;;;;;2.95;2.75;;;25.50;46.90;;;;;;4961111;28;20505;-75
2022/05/11 12:24:36;;;;;;;5.95;2.60;;;25.30;47.10;;;;;;4943227;28;20149;-74
2022/05/11 12:27:06;;;;;;;3.13;2.80;;;25.40;44.40;;;;;;4959064;28;20034;-74
2022/05/11 12:32:23;;;;;;;3.40;2.85;;;25.40;42.10;;;;;;4961387;28;20394;-74
2022/05/11 12:34:49;;;;;;;3.03;2.72;;;25.30;43.10;;;;;;4960726;28;20043;-74
2022/05/11 12:37:41;;;;;;;3.83;2.78;;;25.30;44.10;;;;;;4962520;28;20027;-74
2022/05/11 12:40:18;;;;;;;4.88;2.90;;;25.40;48.00;;;;;;4954825;28;20079;-74
2022/05/11 12:42:51;;;;;;;4.30;3.10;;;25.40;42.30;;;;;;4966855;28;20047;-74
2022/05/11 12:45:21;;;;;;;3.05;2.72;;;25.50;45.90;;;;;;4963362;28;22001;-75
2022/05/11 12:47:51;;;;;;;2.72;2.53;;;25.70;43.90;;;;;;4961580;28;20041;-76
2022/05/11 12:50:27;;;;;;;2.53;2.33;;;25.60;42.90;;;;;;4968664;28;20035;-75
2022/05/11 12:53:27;;;;;;;5.22;2.85;;;25.70;42.00;;;;;;4967268;28;20042;-75
2022/05/11 12:56:07;;;;;;;2.70;2.50;;;25.70;47.40;;;;;;4921978;28;20551;-75
2022/05/11 12:58:34;;;;;;;4.47;2.50;;;25.70;44.20;;;;;;4964241;28;20030;-75
2022/05/11 13:01:03;;;;;;;3.65;2.75;;;25.70;42.50;;;;;;4963146;28;20414;-75
2022/05/11 13:03:34;;;;;;;5.85;3.60;;;25.70;45.00;;;;;;4965304;28;20038;-74
2022/05/11 13:06:10;;;;;;;3.10;2.75;;;25.70;44.50;;;;;;4962357;28;20027;-75
2022/05/11 13:08:44;;;;;;;3.75;2.72;;;25.80;43.80;;;;;;4979540;28;20031;-75
2022/05/11 13:11:15;;;;;;;4.30;3.13;;;26.10;46.20;;;;;;4983979;28;20065;-74
2022/05/11 13:13:43;;;;;;;3.30;3.00;;;26.00;43.30;;;;;;4979903;28;20128;-74
2022/05/11 13:16:32;;;;;;;3.28;2.97;;;25.80;41.80;;;;;;4980984;28;20042;-74
2022/05/11 13:19:23;;;;;;;4.80;3.00;;;25.70;42.50;;;;;;4978140;28;20046;-74
2022/05/11 13:21:50;;;;;;;3.20;3.00;;;25.70;42.80;;;;;;4978310;28;21489;-73
2022/05/11 13:24:46;;;;;;;2.80;2.53;;;25.70;43.50;;;;;;4975952;28;20367;-74
2022/05/11 13:27:39;;;;;;;4.95;2.90;;;25.80;42.90;;;;;;4979791;28;20038;-74
2022/05/11 13:30:29;;;;;;;3.13;2.70;;;25.80;42.30;;;;;;4980790;28;20466;-75
2022/05/11 13:32:58;;;;;;;4.65;3.40;;;25.80;40.90;;;;;;4982882;28;20073;-74
2022/05/11 13:35:33;;;;;;;3.42;2.75;;;25.90;44.80;;;;;;4964974;28;20042;-74
2022/05/11 13:38:08;;;;;;;3.20;3.00;;;26.00;43.60;;;;;;4965548;28;20077;-74
2022/05/11 13:40:48;;;;;;;2.80;2.53;;;26.10;43.10;;;;;;4965448;28;20037;-75
2022/05/11 13:43:36;;;;;;;3.17;2.40;;;26.00;40.20;;;;;;4979044;28;20030;-74
2022/05/11 13:46:09;;;;;;;;;;;25.90;40.30;;;;;;4981667;28;20030;-75
2022/05/11 13:48:42;;;;;;;2.70;2.50;;;26.00;43.10;;;;;;4961867;28;22349;-74